Big Rapids, MI

2:52 PM EST on December 05, 2019 (GMT -0500)
Roben-Hood

Weather History for KRQB - November, 2019

Change the Weather History Date:

Saturday, November 16, 2019

  Actual Average Record
Temperature  
Mean Temperature 26 °F -  
Max Temperature 33 °F 44 °F 62 °F (1975)
Min Temperature 18 °F 26 °F 15 °F (2002)
Degree Days  
Heating Degree Days 40    
Moisture  
Dew Point 16 °F    
Average Humidity 65    
Maximum Humidity 88    
Minimum Humidity 44    
Precipitation  
Precipitation 0.00 in - - ()
Sea Level Pressure  
Sea Level Pressure 30.40 in    
Wind  
Wind Speed 4 mph ()    
Max Wind Speed 13 mph    
Max Gust Speed -    
Visibility 10.0 miles    
Events      
Averages and records for this station are not official NWS values.
T = Trace of Precipitation, MM = Missing Value Source: Averaged Metar Reports

Daily Weather History Graph

Daily Weather History Graph

Search for Another Location

Airport or City:

Astronomy

Nov. 16, 2019 Rise Set
Actual Time 7:37 AM EST 5:15 PM EST
Civil Twilight 7:06 AM EST 5:46 PM EST
Nautical Twilight 6:31 AM EST 6:21 PM EST
Astronomical Twilight 5:57 AM EST 6:55 PM EST
Moon 8:44 PM EST (11/16) 11:34 AM EST (11/16)
Length of Visible Light 10h 40m
Length of Day
9h 38m
Waning Gibbous, 82% of the Moon is Illuminated
Nov 16
Waning Gibbous
Nov 19
Last Quarter
Nov 26
New
Dec 4
First Quarter
Dec 12
Full

Hourly Weather History & Observations

Time (EST) Temp. Windchill Dew Point Humidity Pressure Visibility Wind Dir Wind Speed Gust Speed Precip Events Conditions
12:15 AM 27.0 °F 23.0 °F 19.4 °F 73% 30.45 in 10.0 mi NE 3.5 mph - N/A   Clear
12:35 AM 26.4 °F 20.9 °F 19.4 °F 75% 30.45 in 10.0 mi NE 4.6 mph - N/A   Clear
12:55 AM 25.7 °F 21.5 °F 19.2 °F 76% 30.45 in 10.0 mi ENE 3.5 mph - N/A   Clear
1:15 AM 25.3 °F 21.1 °F 17.6 °F 72% 30.46 in 10.0 mi ENE 3.5 mph - N/A   Clear
1:16 AM 25.3 °F 21.1 °F 17.6 °F 72% 30.46 in 10.0 mi ENE 3.5 mph - N/A   Clear
1:35 AM 24.8 °F 20.5 °F 17.6 °F 74% 30.45 in 10.0 mi NE 3.5 mph - N/A   Clear
1:36 AM 24.6 °F 20.3 °F 17.6 °F 75% 30.46 in 10.0 mi ENE 3.5 mph - N/A   Clear
1:55 AM 24.3 °F - 17.4 °F 75% 30.45 in 10.0 mi Calm Calm - N/A   Clear
2:15 AM 23.9 °F - 17.4 °F 76% 30.46 in 10.0 mi Calm Calm - N/A   Clear
2:35 AM 23.5 °F 19.1 °F 17.1 °F 76% 30.46 in 10.0 mi ENE 3.5 mph - N/A   Clear
2:55 AM 23.0 °F 18.4 °F 16.9 °F 77% 30.46 in 10.0 mi East 3.5 mph - N/A   Clear
3:15 AM 22.3 °F 16.1 °F 17.1 °F 80% 30.46 in 10.0 mi East 4.6 mph - N/A   Clear
3:35 AM 22.5 °F 17.8 °F 17.1 °F 80% 30.46 in 10.0 mi East 3.5 mph - N/A   Clear
4:15 AM 21.2 °F - 15.8 °F 80% 30.46 in 10.0 mi Calm Calm - N/A   Clear
4:35 AM 20.7 °F - 15.1 °F 79% 30.46 in 10.0 mi Calm Calm - N/A   Clear
4:55 AM 20.7 °F - 16.2 °F 83% 30.46 in 10.0 mi Calm Calm - N/A   Clear
5:15 AM 20.3 °F - 15.8 °F 83% 30.46 in 10.0 mi Calm Calm - N/A   Clear
5:35 AM 19.9 °F - 15.6 °F 83% 30.47 in 10.0 mi Calm Calm - N/A   Clear
5:36 AM 19.9 °F - 15.6 °F 83% 30.47 in 10.0 mi Calm Calm - N/A   Clear
5:55 AM 20.1 °F - 15.3 °F 81% 30.47 in 10.0 mi Calm Calm - N/A   Clear
6:15 AM 19.9 °F - 14.9 °F 81% 30.47 in 10.0 mi Calm Calm - N/A   Clear
6:55 AM 19.8 °F - 15.1 °F 82% 30.47 in 10.0 mi Calm Calm - N/A   Clear
6:56 AM 19.8 °F - 15.1 °F 82% 30.47 in 10.0 mi Calm Calm - N/A   Clear
7:15 AM 18.5 °F - 14.4 °F 84% 30.48 in 10.0 mi Calm Calm - N/A   Clear
7:35 AM 18.1 °F - 14.7 °F 86% 30.48 in 10.0 mi Calm Calm - N/A   Clear
7:55 AM 18.7 °F - 15.4 °F 87% 30.48 in 10.0 mi Calm Calm - N/A   Clear
8:15 AM 18.5 °F - 15.4 °F 88% 30.49 in 10.0 mi Calm Calm - N/A   Clear
8:35 AM 19.2 °F - 15.8 °F 87% 30.49 in 10.0 mi Calm Calm - N/A   Clear
8:55 AM 20.7 °F - 16.2 °F 83% 30.49 in 10.0 mi Calm Calm - N/A   Clear
9:16 AM 22.5 °F - 17.1 °F 80% 30.49 in 10.0 mi Calm Calm - N/A   Clear
9:35 AM 24.8 °F 19.1 °F 18.1 °F 76% 30.49 in 10.0 mi SSE 4.6 mph - N/A   Clear
9:55 AM 26.4 °F 18.9 °F 18.5 °F 72% 30.49 in 10.0 mi SE 6.9 mph - N/A   Clear
9:56 AM 26.4 °F 18.9 °F 18.7 °F 73% 30.49 in 10.0 mi SE 6.9 mph - N/A   Clear
10:15 AM 28.0 °F 21.7 °F 18.7 °F 68% 30.49 in 10.0 mi SE 5.8 mph - N/A   Clear
10:35 AM 28.8 °F 18.4 °F 18.3 °F 65% 30.49 in 10.0 mi SE 12.7 mph - N/A   Clear
10:55 AM 29.7 °F 20.7 °F 18.7 °F 64% 30.48 in 10.0 mi SSE 10.4 mph - N/A   Clear
11:15 AM 30.7 °F 23.3 °F 18.9 °F 61% 30.48 in 10.0 mi ESE 8.1 mph - N/A   Clear
11:35 AM 31.5 °F 22.9 °F 18.9 °F 60% 30.47 in 10.0 mi ESE 10.4 mph - N/A   Clear
11:36 AM 31.5 °F 22.3 °F 18.9 °F 60% 30.47 in 10.0 mi SE 11.5 mph - N/A   Clear
11:55 AM 30.9 °F 21.7 °F 18.7 °F 61% 30.46 in 10.0 mi SE 11.5 mph - N/A   Clear
11:56 AM 30.9 °F 22.2 °F 18.9 °F 61% 30.46 in 10.0 mi SE 10.4 mph - N/A   Clear
12:15 PM 31.6 °F 23.7 °F 19.0 °F 60% 30.45 in 10.0 mi SE 9.2 mph - N/A   Clear
12:35 PM 31.8 °F 22.8 °F 19.2 °F 60% 30.44 in 10.0 mi SE 11.5 mph - N/A   Clear
12:36 PM 31.8 °F 23.3 °F 19.2 °F 60% 30.43 in 10.0 mi SE 10.4 mph - N/A   Clear
12:55 PM 32.0 °F 25.6 °F 18.7 °F 58% 30.43 in 10.0 mi SE 6.9 mph - N/A   Clear
1:15 PM 32.2 °F 25.8 °F 19.4 °F 59% 30.42 in 10.0 mi SE 6.9 mph - N/A   Clear
1:35 PM 32.4 °F 26.9 °F 18.5 °F 57% 30.40 in 10.0 mi ESE 5.8 mph - N/A   Clear
1:55 PM 33.1 °F 25.5 °F 19.2 °F 57% 30.40 in 10.0 mi SSE 9.2 mph - N/A   Clear
2:15 PM 33.1 °F 25.5 °F 18.0 °F 54% 30.39 in 10.0 mi ESE 9.2 mph - N/A   Clear
2:16 PM 33.1 °F 26.1 °F 17.8 °F 53% 30.39 in 10.0 mi ESE 8.1 mph - N/A   Clear
2:35 PM 32.9 °F 25.9 °F 18.3 °F 55% 30.37 in 10.0 mi ESE 8.1 mph - N/A   Clear
2:36 PM 32.9 °F 25.9 °F 18.3 °F 55% 30.37 in 10.0 mi ESE 8.1 mph - N/A   Clear
2:55 PM 33.1 °F 24.9 °F 18.0 °F 54% 30.37 in 10.0 mi ESE 10.4 mph - N/A   Clear
3:15 PM 32.9 °F 26.7 °F 16.2 °F 50% 30.37 in 10.0 mi SE 6.9 mph - N/A   Clear
3:35 PM 32.7 °F 26.4 °F 17.2 °F 53% 30.36 in 10.0 mi ESE 6.9 mph - N/A   Clear
3:55 PM 33.1 °F 26.9 °F 17.4 °F 53% 30.35 in 10.0 mi East 6.9 mph - N/A   Clear
4:15 PM 32.9 °F 27.5 °F 17.4 °F 53% 30.34 in 10.0 mi ESE 5.8 mph - N/A   Clear
4:55 PM 32.0 °F 27.5 °F 15.8 °F 51% 30.34 in 10.0 mi SE 4.6 mph - N/A   Clear
4:56 PM 32.0 °F 27.5 °F 15.8 °F 51% 30.34 in 10.0 mi SE 4.6 mph - N/A   Clear
5:15 PM 30.9 °F 27.5 °F 15.4 °F 53% 30.34 in 10.0 mi SE 3.5 mph - N/A   Clear
5:35 PM 30.2 °F 23.4 °F 14.4 °F 52% 30.33 in 10.0 mi SE 6.9 mph - N/A   Clear
5:55 PM 30.9 °F 25.2 °F 11.5 °F 44% 30.32 in 10.0 mi SE 5.8 mph - N/A   Clear
6:15 PM 30.4 °F 25.6 °F 11.1 °F 45% 30.32 in 10.0 mi SSE 4.6 mph - N/A   Clear
6:16 PM 30.2 °F 24.3 °F 10.9 °F 45% 30.32 in 10.0 mi SE 5.8 mph - N/A   Clear
6:35 PM 29.3 °F 25.6 °F 12.9 °F 51% 30.32 in 10.0 mi SSE 3.5 mph - N/A   Clear
6:36 PM 29.3 °F 24.3 °F 12.9 °F 51% 30.32 in 10.0 mi SSE 4.6 mph - N/A   Clear
6:55 PM 29.3 °F 23.2 °F 12.4 °F 49% 30.32 in 10.0 mi SE 5.8 mph - N/A   Clear
6:56 PM 29.3 °F 23.2 °F 12.4 °F 49% 30.32 in 10.0 mi SE 5.8 mph - N/A   Clear
7:15 PM 28.4 °F 20.4 °F 12.7 °F 52% 30.32 in 10.0 mi SE 8.1 mph - N/A   Clear
7:16 PM 28.4 °F 20.4 °F 12.7 °F 52% 30.32 in 10.0 mi SE 8.1 mph - N/A   Clear
7:35 PM 28.8 °F 21.7 °F 12.0 °F 50% 30.32 in 10.0 mi SE 6.9 mph - N/A   Clear
7:55 PM 27.7 °F 19.6 °F 13.1 °F 54% 30.32 in 10.0 mi SE 8.1 mph - N/A   Clear
7:56 PM 27.7 °F 19.6 °F 13.1 °F 54% 30.32 in 10.0 mi SE 8.1 mph - N/A   Clear
8:15 PM 27.5 °F 20.2 °F 12.2 °F 53% 30.32 in 10.0 mi SE 6.9 mph - N/A   Clear
8:16 PM 27.5 °F 20.2 °F 12.2 °F 53% 30.32 in 10.0 mi SE 6.9 mph - N/A   Clear
8:35 PM 27.3 °F 22.0 °F 12.2 °F 53% 30.32 in 10.0 mi ESE 4.6 mph - N/A   Clear
8:55 PM 27.0 °F 20.5 °F 11.8 °F 53% 30.31 in 10.0 mi ESE 5.8 mph - N/A   Clear
9:15 PM 26.4 °F 20.9 °F 12.6 °F 56% 30.31 in 10.0 mi ESE 4.6 mph - N/A   Clear
9:35 PM 26.4 °F 22.4 °F 13.1 °F 57% 30.30 in 10.0 mi ESE 3.5 mph - N/A   Clear
9:55 PM 26.6 °F 19.1 °F 13.1 °F 57% 30.29 in 10.0 mi ESE 6.9 mph - N/A   Clear
9:56 PM 26.6 °F 19.1 °F 13.1 °F 57% 30.29 in 10.0 mi SE 6.9 mph - N/A   Clear
10:15 PM 26.2 °F 18.6 °F 13.8 °F 59% 30.29 in 10.0 mi SE 6.9 mph - N/A   Clear
10:35 PM 26.2 °F 18.6 °F 14.9 °F 62% 30.28 in 10.0 mi SE 6.9 mph - N/A   Clear
10:55 PM 25.9 °F 19.2 °F 15.8 °F 66% 30.27 in 10.0 mi ESE 5.8 mph - N/A   Clear
11:15 PM 25.7 °F 19.0 °F 16.5 °F 68% 30.28 in 10.0 mi SE 5.8 mph - N/A   Clear
11:35 PM 25.5 °F 17.8 °F 16.7 °F 69% 30.27 in 10.0 mi SSE 6.9 mph - N/A   Clear
11:36 PM 25.5 °F 17.8 °F 16.7 °F 69% 30.27 in 10.0 mi SSE 6.9 mph - N/A   Clear
11:55 PM 24.8 °F 19.1 °F 17.6 °F 74% 30.26 in 10.0 mi SE 4.6 mph - N/A   Clear